Portada
METAR-TAF:

METAR-TAF

Aeroports :

Abadeh, Iran

latitud: 31-11N, longitud: 052-40E, altitud: 2004 m

Observació

L'informe es va fer fa 33 minuts, a les 22:00 UTC
Vent 1 kt amb direcció variable
Temperatura 4°C
Humitat 75%
Pressió 1022 hPa

METAR: OISA 172200Z AUTO VRB01KT //// // ////// 04/00 Q1022

Hora: 02:03 (22:33 UTC)


TAF: manca

Observacions i pronòstics meteorològics de més de 4000 aeroports (METAR i TAF).

Les estacions disponibles són els punts grocs i vermells al mapa.

Posi el ratolí al punt desitjat per veure el nom de l'estació.

Feu clic per veure les observacions i els pronòstics meteorològics.

Per canviar el mapa: feu clic els botons verds amb una creu de color negre per apropar; al botó verd amb un guió per allunyar la imatge; o en les fletxes verdes per a mapes adjacents.


METAR-TAF: